Saltar para o conteúdo principal

Estremoz

ID 1210837 · 38.8667, -7.5167 mapa

Última leitura · 2026-05-09 18:00 (Europe/Lisbon)

Temperatura
18.2 °C
Humidade
73 %
Pressão
Precipitação
0.0 mm
Radiação
1,607 W/m²
Velocidade do vento
15.8 km/h
Direcção do vento
S · Sul

Histórico de 24 horas

Hora (Europe/Lisbon) Temperatura Humidade Pressão Chuva Vento Direcção
2026-05-09 18:00 18.2 °C 73 % 0.0 mm 15.8 km/h S
2026-05-09 17:00 16.6 °C 79 % 0.1 mm 18.7 km/h S
2026-05-09 16:00 18.9 °C 63 % 0.0 mm 17.6 km/h S
2026-05-09 15:00 18.4 °C 66 % 0.0 mm 24.1 km/h SW
2026-05-09 14:00 17.8 °C 72 % 0.0 mm 21.6 km/h SW
2026-05-09 13:00 16.5 °C 88 % 0.0 mm 26.6 km/h SW
2026-05-09 12:00 14.9 °C 100 % 0.3 mm 21.6 km/h SW
2026-05-09 11:00 13.8 °C 100 % 1.5 mm 20.9 km/h SE
2026-05-09 10:00 13.0 °C 100 % 0.2 mm 17.3 km/h SE
2026-05-09 09:00 12.0 °C 100 % 0.1 mm 11.2 km/h SE
2026-05-09 08:00 11.4 °C 100 % 1.9 mm 10.1 km/h SE
2026-05-09 07:00 11.5 °C 100 % 0.5 mm 11.5 km/h SE
2026-05-09 06:00 12.0 °C 100 % 0.1 mm 11.2 km/h SE
2026-05-09 05:00 12.1 °C 100 % 0.0 mm 13.7 km/h SE
2026-05-09 04:00 12.4 °C 100 % 0.1 mm 7.6 km/h SE
2026-05-09 03:00 12.4 °C 100 % 0.0 mm 12.2 km/h S
2026-05-09 02:00 12.1 °C 100 % 0.0 mm 12.2 km/h S
2026-05-09 01:00 12.1 °C 100 % 1.2 mm 11.2 km/h SE
2026-05-09 00:00 13.7 °C 92 % 1.4 mm 7.9 km/h S
2026-05-08 23:00 14.3 °C 79 % 0.0 mm 8.6 km/h SW
2026-05-08 22:00 14.5 °C 81 % 0.0 mm 7.2 km/h S
2026-05-08 21:00 15.6 °C 72 % 0.0 mm 11.2 km/h SW
2026-05-08 20:00 18.1 °C 54 % 0.0 mm 10.4 km/h S
2026-05-08 19:00 19.0 °C 50 % 0.0 mm 14.0 km/h S